Logo AVAMET
Benvolgut visitant, si us plau, ingressa Recuperar contrasenya

Pedreguer poble

Dades diàries. Acumulats / Últims 30 dies disponibles

Data Temperatura (°C) Humitat rel. (%) Pressió rel. (hPa) Vent (km/h) Precipitació
Mínima Mitjana Màxima Amplitud
tèrmica
Mínima Mitjana Màxima Mínima Mitjana Màxima Predom. Mitjana Ràfega
màxima
Total
(mm)
Índex-n
Mínima Mitjana Màxima Mínima Mitjana Màxima n
0 a 1
P0 max
mm 5'
Dades mensuals acumulades fins l'últim dia disponible
07/2019 20,8 22,8 27,7 27,5 30,6 33,1 40,3 19,5   2,7 41,8 0,2
Dades anuals acumulades fins l'últim dia disponible
2019 2,2 12,5 27,7 17,0 11,7 22,3 40,3 38,1   2,3 49,9 326,4
Últims 30 dies disponibles
21-07-2019 24,1     27,3     31,6 7,5 NNW 2,4 19,3 0,0
20-07-2019 23,0     26,9     32,2 9,2 NNW 1,6 17,7 0,0
19-07-2019 21,7     26,8     31,9 10,2 ESE 3,1 29,0 0,0
18-07-2019 21,5     26,6     31,6 10,1 ESE 3,7 29,0 0,0
17-07-2019 21,7     26,9     32,0 10,3 ESE 3,2 27,4 0,0
16-07-2019 23,3     26,9     30,9 7,6 ESE 3,4 38,6 0,0
15-07-2019 22,4     28,0     33,8 11,4 SSE 1,9 25,7 0,0
14-07-2019 23,2     27,1     32,4 9,2 NNW 2,3 22,5 0,0
13-07-2019 25,2     28,7     35,2 10,0 ENE 1,4 24,1 0,0
12-07-2019 22,2     29,0     36,3 14,1 ESE 3,4 35,4 0,0
11-07-2019 21,1     27,2     34,3 13,2 ESE 4,3 40,2 0,0
10-07-2019 20,8     26,5     32,3 11,5 ENE 2,7 24,1 0,0
09-07-2019 22,6     26,9     31,6 9,0 ESE 3,2 29,0 0,0
08-07-2019 24,1     26,8     31,1 7,0 NE 1,3 17,7 0,2
07-07-2019 27,7     33,3     40,3 12,6 SW 3,4 32,2 0,0
06-07-2019 23,2     30,1     38,8 15,6 ESE 3,4 41,8 0,0
05-07-2019 23,0     27,2     32,9 9,9 SSW 3,1 35,4 0,0
04-07-2019 21,9     26,6     31,3 9,4 NNW 1,8 17,7 0,0
03-07-2019 21,3     26,6     32,6 11,3 NE 1,9 19,3 0,0
02-07-2019 22,5     26,4     31,5 9,0 NNW 2,3 20,9 0,0
01-07-2019 22,3     26,1     30,6 8,3 NW 1,9 19,3 0,0
29-06-2019 20,7     29,4     37,3 16,6 ENE 1,9 20,9 0,0
28-06-2019 20,4     28,4     36,2 15,8 NE 1,8 22,5 0,0
27-06-2019 22,1     26,4     32,6 10,5 SW 2,6 19,3 0,0
26-06-2019 22,2     24,4     28,7 6,5 NW 2,9 22,5 0,0
25-06-2019 20,6     24,0     28,3 7,7 NW 3,1 22,5 0,0
24-06-2019 19,9     23,6     27,3 7,4 NNW 2,9 25,7 0,0
23-06-2019 17,8     24,2     30,7 12,9 NE 2,3 20,9 0,0
22-06-2019 19,8     23,6     28,1 8,3 WSW 2,7 22,5 0,0
21-06-2019 20,1     22,8     26,9 6,8 NNW 2,4 20,9 0,0
Últims 13 mesos disponibles
06/2019 14,0 17,7 22,2 22,8 23,1 28,3 37,3 23,3 ESE 3,0 43,5 1,0
05/2019 9,3 14,1 21,0 18,9 19,4 24,1 30,8 21,5 ESE 2,5 40,2 9,8
04/2019 8,8 11,4 13,8 15,3 13,8 19,7 28,6 19,8 ESE 2,3 38,6 285,4
03/2019 6,8 9,5 14,6 14,5 12,7 20,0 28,8 22,0 ESE 2,1 37,0 22,8
02/2019 3,6 7,6 11,1 12,0 13,0 17,4 23,3 19,7 WSW 2,0 49,9 0,6
01/2019 2,2 7,0 11,6 10,8 11,7 16,2 20,7 18,5 SW 1,7 40,2 6,6
12/2018 5,7 8,7 11,9 12,5 11,8 18,6 23,5 17,8 ESE 0,8 35,4 40,4
11/2018 6,8 11,5 16,0 14,6 14,2 18,8 23,7 16,9 SW 1,2 48,3 122,4
10/2018 8,5 14,9 18,4 18,6 14,4 23,2 28,6 20,1 SW 1,6 38,6 105,4
09/2018 15,1 20,6 24,1 28,7 33,5 18,4 SW 1,5 41,8 54,2
08/2018 18,8 22,8 27,2 32,3 38,1 19,3 ESE 2,1 37,0 71,4
07/2018 20,3 22,5 27,4 33,2 37,3 17,0 ESE 2,7 43,5 1,4
06/2018 13,6 18,7 23,9 29,5 34,5 20,9 ESE 2,7 41,8 32,0
Tots els anys disponibles
2018 5,7 11,7 18,4 15,3 11,8 20,2 28,6 22,9 SW 1,2 48,3 268,2
2017 0,3 15,0 26,9 19,6 8,0 24,7 37,3 37,0 2,2 64,4 583,6
2016 2,2 14,6 25,8 18,8 12,6 23,7 39,6 37,4 2,3 53,1 449,0
2015 1,6 14,4 21,1 18,7 22,4 24,2 41,4 39,8 2,5 61,2 493,2
2014 1,1 14,8 25,2 19,1 9,8 24,5 38,2 37,1 3,0 49,9 184,4
2013 1,3 13,8 16,9 18,2 18,7 23,5 37,0 35,7 3,3 53,1 626,0
2012 0,2 13,9 20,7 18,4 21,7 23,9 41,7 41,5 2,2 45,1 649,0
2011 -0,5 14,1 24,3 18,2 6,6 23,2 38,6 39,1 2,2 49,9 721,4
2010 -0,3 13,6 25,1 17,9 5,8 22,4 40,6 40,9 43 67 95 4,6 174,0 934,0
2009 0,7 14,5 26,0 18,5 5,3 23,1 38,0 37,3 4,9 77,2 1.203,4
2008 4,2 14,2 17,8 22,0 37,2 33,0 5,0 64,4 885,4
2007 3,1 14,4 24,4 18,0 9,4 22,1 36,4 33,3 4,8 74,0 1.421,4
2006 0,0 14,8 18,8 22,7 36,2 36,2 5,1 61,2 776,6
Temperatura (°C)
Humitat relativa (%)
Velocitat del vent i ràfega màxima (km/h)
Direcció del vent (°)
Pressió (hPa)
Precipitació (mm)
Nota sobre les dades: s'avisa a l'usuari de la provisionalitat i no oficialitat d'aquestes dades
Logo AVAMET blanc
Web allotjada a Sollutia
Llicència de Creative CommonsLa web d'AVAMET i els seus continguts estan subjectes a una llicència de
Reconeixement - No Comercial - Compartir igual
Properes estacions: Altea - Club Nàutic d'Altea (Soci), Ares del Maestrat (Ajuntament Soci),      - - - - -      Últimes estacions: Catadau - Urb. Lloma Molina (Inforatge), Ontinyent - El Pilar (Soci) - - -